Latest Weather Observations for Narrandera Airport

IDN60801

Issued at 6:23 pm EST Saturday 9 May 2026 (issued every 10 minutes, with the page automatically refreshed every 10 minutes)

About weather observations | Map of weather stations | Latest weather observations for NSW | Other Formats
Station Details ID: 074148 Name: NARRANDERA AIRPORT AWS Lat: -34.70 Lon: 146.51 Height: 145.0 m
Data from the previous 72 hours. | See also: Recent months at Narrandera Airport
Date/Time
EST
Temp
°C
App
Temp
°C
Dew
Point
°C
Rel
Hum
%
Delta-T
°C
Wind Press
QNH
hPa
Press
MSL
hPa
Rain since
9am
mm
Dir  Spd
km/h
Gust
km/h
Spd
kts
Gust
kts
09/06:00pm 13.7 13.0 7.0 64 3.3 CALM 0 0 0 0 1026.1 1026.2 0.0
09/05:30pm 15.5 13.7 7.0 57 4.2 SW 6 9 3 5 1025.8 1025.9 0.0
09/05:00pm 17.0 14.2 6.8 51 5.1 SW 11 13 6 7 1025.4 1025.5 0.0
09/04:30pm 17.9 14.7 7.0 49 5.5 SW 13 19 7 10 1025.3 1025.4 0.0
09/04:00pm 18.3 15.2 7.1 48 5.6 SW 13 20 7 11 1025.2 1025.3 0.0
09/03:30pm 18.5 15.3 7.0 47 5.8 SSW 13 19 7 10 1025.1 1025.2 0.0
09/03:00pm 18.6 15.5 7.1 47 5.8 WSW 13 20 7 11 1025.1 1025.2 0.0
09/02:30pm 18.4 15.7 7.5 49 5.6 SW 11 19 6 10 1025.1 1025.2 0.0
09/02:00pm 18.3 16.4 7.7 50 5.4 W 7 15 4 8 1025.1 1025.2 0.0
09/01:30pm 18.0 15.8 8.0 52 5.1 SW 9 20 5 11 1025.3 1025.4 0.0
09/01:00pm 17.5 15.3 7.8 53 4.9 S 9 17 5 9 1025.6 1025.7 0.0
09/12:30pm 16.5 14.2 7.4 55 4.6 SSW 9 13 5 7 1026.1 1026.2 0.0
09/12:00pm 16.1 13.6 8.3 60 4.0 WSW 11 13 6 7 1026.6 1026.7 0.0
09/11:30am 15.5 13.4 8.3 62 3.7 S 9 13 5 7 1027.1 1027.1 0.0
09/11:00am 14.6 11.8 8.5 67 3.1 SSW 13 15 7 8 1027.3 1027.3 0.0
09/10:30am 13.5 11.6 9.2 75 2.2 SW 9 15 5 8 1027.4 1027.4 0.0
09/10:00am 12.4 10.5 8.9 79 1.8 SSW 9 13 5 7 1027.4 1027.4 0.0
09/09:30am 11.3 8.9 8.7 84 1.3 SSW 11 17 6 9 1027.4 1027.4 0.0
09/09:00am 10.3 8.9 8.7 90 0.8 SSW 6 11 3 6 1027.4 1027.4 0.0
09/08:54am 10.3 9.8 9.2 93 0.6 SW 2 7 1 4 1027.5 1027.5 0.0
09/08:30am 9.0 7.6 9.0 100 0.0 WSW 6 7 3 4 1027.2 1027.2 0.0
09/08:25am 8.9 7.5 8.9 100 0.0 W 6 9 3 5 1027.1 1027.1 0.0
09/08:22am 8.6 7.0 8.6 100 0.0 W 7 9 4 5 1027.0 1027.0 0.0
09/08:14am 8.3 7.5 8.3 100 0.0 W 2 9 1 5 1026.9 1026.9 0.0
09/08:00am 7.6 7.0 7.6 100 0.0 CALM 0 0 0 0 1026.7 1026.8 0.0
09/07:30am 5.6 4.6 5.5 99 0.0 CALM 0 0 0 0 1026.5 1026.6 0.0
09/07:00am 4.5 3.3 4.4 99 0.0 CALM 0 0 0 0 1026.1 1026.2 0.0
09/06:30am 4.3 3.0 4.2 99 0.0 CALM 0 0 0 0 1025.7 1025.8 0.0
09/06:00am 4.6 3.4 4.5 99 0.0 CALM 0 0 0 0 1025.4 1025.5 0.0
09/05:30am 4.9 3.7 4.8 99 0.0 CALM 0 0 0 0 1025.1 1025.2 0.0
09/05:00am 5.3 3.8 5.2 99 0.0 NNW 2 7 1 4 1025.1 1025.2 0.0
09/04:30am 5.3 4.2 5.0 98 0.1 CALM 0 7 0 4 1025.1 1025.2 0.0
09/04:00am 5.7 4.7 5.4 98 0.1 CALM 0 2 0 1 1025.0 1025.1 0.0
09/03:30am 6.1 4.4 5.7 97 0.2 NW 4 9 2 5 1025.0 1025.1 0.0
09/03:00am 6.6 5.0 6.3 98 0.1 NNW 4 6 2 3 1025.2 1025.3 0.0
09/02:30am 5.9 4.8 5.0 94 0.4 CALM 0 0 0 0 1025.3 1025.4 0.0
09/02:00am 6.7 5.8 6.0 95 0.3 CALM 0 0 0 0 1025.3 1025.4 0.0
09/01:30am 7.0 6.0 5.8 92 0.5 CALM 0 2 0 1 1025.1 1025.2 0.0
09/01:00am 7.4 5.1 5.9 90 0.7 NW 7 9 4 5 1025.1 1025.2 0.0
09/12:30am 7.9 6.3 6.2 89 0.8 E 4 9 2 5 1024.9 1025.0 0.0
09/12:00am 9.2 7.4 7.2 87 0.9 SW 6 9 3 5 1024.7 1024.8 0.0
 
Date/Time
EST
Temp
°C
App
Temp
°C
Dew
Point
°C
Rel
Hum
%
Delta-T
°C
Wind Press
QNH
hPa
Press
MSL
hPa
Rain since
9am
mm
Dir  Spd
km/h
Gust
km/h
Spd
kts
Gust
kts
08/11:30pm 9.6 7.8 7.0 84 1.2 SW 6 7 3 4 1024.7 1024.8 0.0
08/11:00pm 10.0 8.6 7.1 82 1.4 W 4 9 2 5 1024.9 1025.0 0.0
08/10:30pm 11.0 9.2 7.1 77 1.9 SW 6 7 3 4 1025.2 1025.3 0.0
08/10:00pm 12.1 10.3 7.2 72 2.4 WSW 6 11 3 6 1025.1 1025.2 0.0
08/09:30pm 12.6 10.7 7.5 71 2.5 WSW 7 11 4 6 1025.0 1025.1 0.0
08/09:00pm 13.1 10.8 7.3 68 2.8 WSW 9 13 5 7 1024.8 1024.9 0.0
08/08:30pm 13.8 11.8 7.3 65 3.2 WSW 7 13 4 7 1024.8 1024.9 0.0
08/08:00pm 13.6 11.3 7.4 66 3.0 W 9 13 5 7 1024.4 1024.4 0.0
08/07:30pm 12.2 10.2 7.1 71 2.5 W 7 13 4 7 1024.3 1024.3 0.0
08/07:00pm 14.5 12.1 6.8 60 3.8 WSW 9 11 5 6 1024.1 1024.1 0.0
08/06:30pm 14.6 12.2 6.9 60 3.8 W 9 13 5 7 1024.0 1024.0 0.0
08/06:00pm 15.3 13.2 6.6 56 4.2 WSW 7 13 4 7 1023.8 1023.8 0.0
08/05:30pm 16.0 12.7 6.4 53 4.7 WSW 13 19 7 10 1023.4 1023.4 0.0
08/05:00pm 16.5 13.6 6.3 51 5.0 WSW 11 20 6 11 1023.2 1023.2 0.0
08/04:30pm 16.7 12.6 6.2 50 5.2 SW 17 28 9 15 1023.1 1023.1 0.0
08/04:00pm 17.9 13.4 6.1 46 5.8 WSW 19 32 10 17 1023.0 1023.0 0.0
08/03:30pm 17.1 12.7 6.6 50 5.2 WSW 19 28 10 15 1023.1 1023.1 0.0
08/03:00pm 17.1 12.8 7.7 54 4.8 SW 20 32 11 17 1023.0 1023.0 0.0
08/02:30pm 17.3 12.1 7.1 51 5.1 SW 24 35 13 19 1022.9 1022.9 0.0
08/02:00pm 16.5 11.0 7.7 56 4.4 SW 26 41 14 22 1023.0 1023.0 0.0
08/01:30pm 16.8 12.2 8.0 56 4.5 WSW 22 32 12 17 1023.0 1023.0 0.0
08/01:00pm 16.4 11.9 8.4 59 4.1 SW 22 33 12 18 1023.1 1023.1 0.0
08/12:30pm 16.2 10.9 8.4 60 4.0 WSW 26 35 14 19 1023.1 1023.1 0.0
08/12:00pm 15.9 12.1 8.9 63 3.6 WSW 19 33 10 18 1023.8 1023.8 0.0
08/11:30am 14.9 10.4 8.4 65 3.3 WSW 22 32 12 17 1024.1 1024.1 0.0
08/11:00am 14.6 9.7 8.5 67 3.1 WSW 24 37 13 20 1024.4 1024.4 0.0
08/10:30am 13.9 9.3 8.1 68 2.9 W 22 30 12 16 1024.6 1024.7 0.0
08/10:00am 12.8 8.5 7.7 71 2.5 WSW 20 28 11 15 1024.7 1024.8 0.0
08/09:30am 12.5 8.1 7.4 71 2.5 WSW 20 28 11 15 1024.8 1024.9 0.0
08/09:00am 11.5 6.7 7.2 75 2.1 W 22 32 12 17 1024.6 1024.7 0.0
08/08:30am 10.9 7.0 7.0 77 1.9 W 17 24 9 13 1024.6 1024.7 0.0
08/08:00am 10.1 5.7 6.4 78 1.7 W 19 30 10 16 1024.8 1024.9 0.0
08/07:30am 10.1 5.5 6.3 77 1.8 W 20 32 11 17 1024.6 1024.7 0.0
08/07:00am 10.3 4.8 6.1 75 2.0 W 24 35 13 19 1024.3 1024.3 0.0
08/06:30am 10.3 5.7 5.7 73 2.1 W 19 26 10 14 1024.3 1024.3 0.0
08/06:00am 10.1 5.8 5.3 72 2.2 W 17 24 9 13 1023.9 1023.9 0.0
08/05:30am 10.1 6.1 5.1 71 2.3 W 15 24 8 13 1023.9 1023.9 0.0
08/05:00am 9.8 5.4 4.8 71 2.2 W 17 26 9 14 1023.8 1023.8 0.0
08/04:30am 9.9 5.9 4.7 70 2.3 W 15 20 8 11 1023.8 1023.8 0.0
08/04:00am 9.6 5.5 4.4 70 2.3 W 15 20 8 11 1023.5 1023.5 0.0
08/03:30am 9.6 5.5 4.2 69 2.4 W 15 24 8 13 1023.7 1023.7 0.0
08/03:00am 9.4 5.2 4.0 69 2.4 W 15 22 8 12 1023.9 1023.9 0.0
08/02:30am 9.0 4.8 3.6 69 2.4 W 15 22 8 12 1023.9 1023.9 0.0
08/02:00am 9.4 4.8 3.6 67 2.5 W 17 22 9 12 1024.1 1024.1 0.0
08/01:30am 9.6 4.6 3.6 66 2.6 W 19 26 10 14 1024.4 1024.4 0.0
08/01:00am 9.7 4.7 3.4 65 2.7 W 19 26 10 14 1024.4 1024.4 0.0
08/12:30am 9.8 5.1 3.1 63 2.9 W 17 22 9 12 1024.5 1024.5 0.0
08/12:00am 9.4 5.4 2.9 64 2.8 WNW 13 15 7 8 1024.7 1024.8 0.0
 
Date/Time
EST
Temp
°C
App
Temp
°C
Dew
Point
°C
Rel
Hum
%
Delta-T
°C
Wind Press
QNH
hPa
Press
MSL
hPa
Rain since
9am
mm
Dir  Spd
km/h
Gust
km/h
Spd
kts
Gust
kts
07/11:30pm 8.9 5.3 2.9 66 2.6 W 11 15 6 8 1025.0 1025.1 0.0
07/11:00pm 7.3 4.5 3.2 75 1.7 WNW 7 11 4 6 1025.0 1025.1 0.0
07/10:30pm 8.1 4.8 2.4 67 2.4 W 9 13 5 7 1025.1 1025.2 0.0
07/10:00pm 8.6 4.9 2.2 64 2.7 W 11 15 6 8 1025.3 1025.4 0.0
07/09:30pm 8.9 4.8 2.0 62 2.9 WSW 13 20 7 11 1025.3 1025.4 0.0
07/09:00pm 9.0 4.8 1.9 61 3.0 W 13 17 7 9 1025.0 1025.1 0.0
07/08:30pm 9.0 5.2 1.7 60 3.0 WSW 11 17 6 9 1025.0 1025.1 0.0
07/08:00pm 9.4 5.9 1.3 57 3.3 WSW 9 13 5 7 1025.2 1025.3 0.0
07/07:30pm 9.9 6.0 1.3 55 3.6 WSW 11 19 6 10 1025.0 1025.1 0.0
07/07:00pm 10.4 5.7 1.0 52 3.9 SW 15 22 8 12 1024.8 1024.9 0.0
07/06:30pm 10.6 6.6 0.6 50 4.1 WSW 11 19 6 10 1024.4 1024.4 0.0
07/06:00pm 11.1 6.7 0.2 47 4.5 WSW 13 20 7 11 1024.3 1024.3 0.0
07/05:30pm 11.6 6.4 0.4 46 4.7 SW 17 26 9 14 1024.0 1024.0 0.0
07/05:00pm 12.2 7.0 0.3 44 4.9 SW 17 28 9 15 1023.7 1023.7 0.0
07/04:30pm 12.6 6.8 0.0 42 5.2 SW 20 33 11 18 1023.5 1023.5 0.0
07/04:00pm 12.9 6.4 0.0 41 5.4 SW 24 43 13 23 1023.4 1023.4 0.0
07/03:30pm 12.7 5.4 -0.2 41 5.3 SW 28 41 15 22 1023.4 1023.4 0.0
07/03:00pm 12.5 3.9 0.0 42 5.2 SSW 35 46 19 25 1023.4 1023.4 0.0
07/02:34pm 12.7 5.4 0.1 42 5.3 SW 28 46 15 25 1023.2 1023.2 0.0
07/02:30pm 12.9 4.9 0.3 42 5.3 SSW 32 46 17 25 1023.3 1023.3 0.0
07/02:00pm 12.7 5.4 -0.2 41 5.3 SW 28 46 15 25 1023.2 1023.2 0.0
07/01:58pm 12.7 5.4 0.1 42 5.3 SW 28 46 15 25 1023.2 1023.2 0.0
07/01:30pm 12.2 5.3 0.0 43 5.1 SW 26 41 14 22 1023.1 1023.1 0.0
07/01:00pm 12.2 4.2 0.6 45 4.8 SW 32 46 17 25 1023.0 1023.0 0.0
07/12:30pm 12.0 4.1 0.8 46 4.7 SW 32 56 17 30 1023.2 1023.2 0.0
07/12:28pm 12.0 4.3 0.1 44 4.9 SW 30 56 16 30 1023.2 1023.2 0.0
07/12:00pm 11.8 5.1 1.2 48 4.5 SW 26 39 14 21 1023.5 1023.5 0.0
07/11:30am 10.9 4.2 1.4 52 4.0 WSW 26 41 14 22 1023.7 1023.7 0.0
07/11:01am 10.4 3.2 0.7 51 4.0 SW 28 46 15 25 1023.8 1023.8 0.0
07/11:00am 10.5 3.0 1.1 52 3.9 SW 30 46 16 25 1023.7 1023.7 0.0
07/10:58am 10.9 3.9 1.7 53 3.9 SW 28 46 15 25 1023.7 1023.7 0.0
07/10:30am 10.4 5.0 2.3 57 3.5 WSW 20 33 11 18 1023.4 1023.4 0.0
07/10:00am 9.2 3.0 1.9 60 3.1 WSW 24 35 13 19 1023.2 1023.2 0.0
07/09:30am 8.8 2.6 2.2 63 2.8 SW 24 35 13 19 1023.1 1023.1 0.0
07/09:00am 8.2 2.3 1.8 64 2.6 SW 22 32 12 17 1022.9 1022.9 0.2
07/08:30am 7.9 2.7 2.4 68 2.3 WSW 19 30 10 16 1022.6 1022.6 0.2
07/08:00am 7.3 2.3 1.6 67 2.3 WSW 17 28 9 15 1022.2 1022.2 0.2
07/07:30am 6.7 1.7 1.4 69 2.1 WSW 17 24 9 13 1021.7 1021.7 0.2
07/07:00am 6.7 2.1 1.4 69 2.1 WSW 15 24 8 13 1021.2 1021.2 0.2
07/06:30am 6.9 2.7 1.4 68 2.2 WSW 13 20 7 11 1020.8 1020.8 0.2
07/06:00am 7.4 3.1 1.0 64 2.6 WSW 13 20 7 11 1020.6 1020.6 0.2
07/05:30am 8.0 2.5 0.7 60 2.9 WSW 19 30 10 16 1020.3 1020.3 0.2
07/05:00am 8.5 2.8 0.5 57 3.2 SW 20 33 11 18 1019.9 1019.9 0.0
07/04:33am 9.3 2.1 0.5 54 3.6 WSW 28 46 15 25 1019.7 1019.7 0.0
07/04:30am 9.5 3.1 1.2 56 3.4 SW 24 39 13 21 1019.7 1019.7 0.0
07/04:00am 10.1 5.7 4.7 69 2.4 SW 17 24 9 13 1019.1 1019.2 0.0
07/03:30am 10.5 4.7 4.2 65 2.8 SW 24 39 13 21 1019.2 1019.3 0.0
07/03:04am 10.9 3.9 3.9 62 3.1 SW 30 50 16 27 1019.0 1019.1 0.0
07/03:00am 11.1 5.1 5.2 67 2.7 SW 26 41 14 22 1018.9 1019.0 0.0
07/02:30am 12.8 7.6 8.9 77 2.0 WSW 26 39 14 21 1018.5 1018.5 0.0
07/02:00am 12.6 8.5 8.7 77 2.0 W 20 28 11 15 1018.5 1018.5 0.0
07/01:30am 12.0 8.1 8.7 80 1.7 WNW 19 30 10 16 1018.6 1018.6 0.0
07/01:00am 11.9 9.1 8.4 79 1.7 NNW 13 15 7 8 1018.5 1018.5 0.0
07/12:30am 12.6 9.2 7.7 72 2.4 WNW 15 20 8 11 1018.7 1018.7 0.0
07/12:00am 11.9 9.1 8.4 79 1.7 WNW 13 15 7 8 1019.2 1019.3 0.0
 
Date/Time
EST
Temp
°C
App
Temp
°C
Dew
Point
°C
Rel
Hum
%
Delta-T
°C
Wind Press
QNH
hPa
Press
MSL
hPa
Rain since
9am
mm
Dir  Spd
km/h
Gust
km/h
Spd
kts
Gust
kts
06/11:30pm 12.0 9.6 8.7 80 1.7 NW 11 13 6 7 1018.8 1018.9 0.0
06/11:00pm 11.7 9.3 8.7 82 1.5 NNW 11 13 6 7 1019.0 1019.1 0.0
06/10:30pm 10.7 8.6 8.1 84 1.3 NW 9 11 5 6 1019.8 1019.8 0.0
06/10:00pm 11.9 9.4 8.0 77 1.9 WNW 11 13 6 7 1020.2 1020.2 0.0
06/09:30pm 11.9 9.9 8.6 80 1.6 WNW 9 11 5 6 1020.2 1020.2 0.0
06/09:00pm 12.2 10.3 9.0 81 1.6 WNW 9 11 5 6 1020.2 1020.2 0.0
06/08:30pm 12.1 10.9 10.2 88 1.0 NNW 7 9 4 5 1020.1 1020.1 0.0
06/08:00pm 12.6 12.5 9.6 82 1.5 CALM 0 0 0 0 1020.2 1020.2 0.0
06/07:30pm 12.5 12.3 9.0 79 1.8 CALM 0 0 0 0 1020.3 1020.3 0.0
06/07:00pm 12.1 11.7 8.4 78 1.8 CALM 0 0 0 0 1020.4 1020.4 0.0
06/06:30pm 13.4 12.6 8.3 71 2.6 WSW 2 6 1 3 1020.3 1020.3 0.0

Other formats

Comma delimited format used in spreadsheet applications
http://www.bom.gov.au/fwo/IDN60801/IDN60801.95706.axf

JavaScript Object Notation format (JSON) in row-major order
http://www.bom.gov.au/fwo/IDN60801/IDN60801.95706.json

Data quality

Most of these data are generated automatically and are frequently updated. Quality checks on data are not normally performed. It is possible for incorrect values to appear. Refer to information at About Latest Weather Observations and please check the disclaimer before using these data.